Time;durP1;ratioP1;P1;durP2;ratioP2;P2;SDS_P1;SDS_P2;PMS_P1;PMS_P2;Temp;Humidity;BMP_temperature;BMP_pressure;BME280_temperature;BME280_humidity;BME280_pressure;Samples;Min_cycle;Max_cycle;Signal;HPM_P1;HPM_P2
2023/01/12 00:02:21;;;;;;;10.87;4.87;;;4.90;96.70;;;;;;5054584;28;20196;-76
2023/01/12 00:04:49;;;;;;;8.47;4.33;;;4.90;96.70;;;;;;5051006;28;20306;-77
2023/01/12 00:07:19;;;;;;;12.50;4.57;;;4.90;96.70;;;;;;5044621;28;20835;-77
2023/01/12 00:09:47;;;;;;;11.02;5.07;;;5.00;96.70;;;;;;5048655;28;20441;-77
2023/01/12 00:12:16;;;;;;;7.40;3.80;;;4.90;96.70;;;;;;5048786;28;20615;-77
2023/01/12 00:14:44;;;;;;;9.00;3.77;;;4.90;96.70;;;;;;5050503;28;20200;-76
2023/01/12 00:17:15;;;;;;;10.30;4.27;;;5.00;96.70;;;;;;5048597;28;20196;-77
2023/01/12 00:19:44;;;;;;;6.50;3.47;;;5.00;96.70;;;;;;5051629;28;20678;-76
2023/01/12 00:22:16;;;;;;;9.82;5.15;;;5.00;96.70;;;;;;5047522;28;20559;-77
2023/01/12 00:24:48;;;;;;;6.43;3.70;;;5.00;96.80;;;;;;5054727;28;20215;-77
2023/01/12 00:27:19;;;;;;;11.80;3.80;;;5.00;96.80;;;;;;5049478;28;20195;-77
2023/01/12 00:29:47;;;;;;;8.40;3.60;;;5.00;96.70;;;;;;5052795;28;20197;-77
2023/01/12 00:32:17;;;;;;;7.93;4.20;;;5.00;96.70;;;;;;5049145;28;20526;-77
2023/01/12 00:34:45;;;;;;;7.70;4.33;;;5.10;96.70;;;;;;5050047;28;20195;-77
2023/01/12 00:37:14;;;;;;;12.83;4.43;;;5.10;96.70;;;;;;5048330;28;20600;-76
2023/01/12 00:39:42;;;;;;;7.97;4.00;;;5.10;96.70;;;;;;5046066;28;20203;-77
2023/01/12 00:45:23;;;;;;;9.03;4.17;;;5.20;96.60;;;;;;5049212;28;20233;-76
2023/01/12 00:47:52;;;;;;;8.80;4.33;;;5.20;96.50;;;;;;5050689;28;20284;-76
2023/01/12 00:50:21;;;;;;;9.30;3.93;;;5.20;96.40;;;;;;5051020;28;20195;-76
2023/01/12 00:52:49;;;;;;;10.50;4.50;;;5.30;96.40;;;;;;5044864;28;20583;-76
2023/01/12 00:55:17;;;;;;;10.50;4.53;;;5.30;96.30;;;;;;5050539;28;20187;-76
2023/01/12 00:57:47;;;;;;;8.67;4.03;;;5.30;96.30;;;;;;5048621;28;20614;-76
2023/01/12 01:00:17;;;;;;;7.23;3.90;;;5.30;96.30;;;;;;5052615;28;20250;-76
2023/01/12 01:02:45;;;;;;;8.40;4.30;;;5.30;96.20;;;;;;5050345;28;20211;-76
2023/01/12 01:05:13;;;;;;;11.67;4.83;;;5.30;96.10;;;;;;5052125;28;20264;-76
2023/01/12 01:07:42;;;;;;;8.63;4.50;;;5.30;96.10;;;;;;5048590;28;20238;-77
2023/01/12 01:10:11;;;;;;;10.03;4.37;;;5.30;96.10;;;;;;5051191;28;20203;-76
2023/01/12 01:12:39;;;;;;;10.70;4.80;;;5.30;96.10;;;;;;5049069;28;20226;-76
2023/01/12 01:15:10;;;;;;;8.33;4.33;;;5.30;96.10;;;;;;5051142;28;20225;-77
2023/01/12 01:17:38;;;;;;;8.77;4.37;;;5.20;95.80;;;;;;5049328;28;20195;-76
2023/01/12 01:20:07;;;;;;;8.80;3.83;;;5.10;96.00;;;;;;5047926;28;20246;-76
2023/01/12 01:22:36;;;;;;;10.47;4.30;;;5.30;96.00;;;;;;5047151;28;20600;-76
2023/01/12 01:25:05;;;;;;;7.43;4.40;;;5.30;96.10;;;;;;5046560;28;20605;-76
2023/01/12 01:27:33;;;;;;;8.67;4.17;;;5.30;96.10;;;;;;5048779;28;20335;-76
2023/01/12 01:30:01;;;;;;;8.40;4.43;;;5.30;96.00;;;;;;5050962;28;20204;-76
2023/01/12 01:32:31;;;;;;;12.93;4.90;;;5.40;96.10;;;;;;5049789;28;20191;-76
2023/01/12 01:34:59;;;;;;;10.83;4.60;;;5.40;96.00;;;;;;5049443;28;20187;-77
2023/01/12 01:37:28;;;;;;;7.80;4.03;;;5.40;96.00;;;;;;5046589;28;20278;-76
2023/01/12 01:39:57;;;;;;;9.73;4.83;;;5.40;95.90;;;;;;5050839;28;20203;-76
2023/01/12 01:42:28;;;;;;;7.50;4.13;;;5.50;95.90;;;;;;5047173;28;20227;-76
2023/01/12 01:44:59;;;;;;;9.40;4.50;;;5.50;95.80;;;;;;5050582;28;20211;-76
2023/01/12 01:47:36;;;;;;;9.63;3.50;;;5.50;95.80;;;;;;5047500;28;20694;-76
2023/01/12 01:50:13;;;;;;;7.17;2.80;;;5.50;95.70;;;;;;5051292;28;20204;-76
2023/01/12 01:52:44;;;;;;;8.43;3.87;;;5.50;95.70;;;;;;5048466;28;20202;-76
2023/01/12 01:55:16;;;;;;;8.30;3.60;;;5.50;95.60;;;;;;5049611;28;20187;-76
2023/01/12 01:57:48;;;;;;;6.70;3.73;;;5.40;95.70;;;;;;5050855;28;20660;-76
2023/01/12 02:00:17;;;;;;;8.17;3.67;;;5.40;95.50;;;;;;5048479;28;20206;-76
2023/01/12 02:02:48;;;;;;;7.47;3.20;;;5.40;95.60;;;;;;5049666;28;20211;-75
2023/01/12 02:05:19;;;;;;;6.10;3.30;;;5.40;95.70;;;;;;5050364;28;20222;-76
2023/01/12 02:07:48;;;;;;;6.27;3.50;;;5.40;95.70;;;;;;5048779;28;20196;-76
2023/01/12 02:10:17;;;;;;;7.47;3.67;;;5.30;95.70;;;;;;5047870;28;20251;-76
2023/01/12 02:18:34;;;;;;;14.67;4.67;;;5.30;95.80;;;;;;5045738;28;20295;-76
2023/01/12 02:21:43;;;;;;;7.83;3.60;;;5.40;95.80;;;;;;5048605;28;20193;-75
2023/01/12 02:24:33;;;;;;;7.97;4.00;;;5.40;95.90;;;;;;5035773;28;20673;-75
2023/01/12 02:27:30;;;;;;;5.90;3.53;;;5.40;95.90;;;;;;5043899;28;20260;-74
2023/01/12 02:30:33;;;;;;;10.00;3.97;;;5.30;95.80;;;;;;5045270;28;20599;-74
2023/01/12 02:33:17;;;;;;;8.17;4.43;;;5.30;95.90;;;;;;5039171;28;20202;-75
2023/01/12 02:35:53;;;;;;;6.83;3.67;;;5.30;95.90;;;;;;5039283;28;20547;-75
2023/01/12 02:38:30;;;;;;;6.57;4.00;;;5.20;96.00;;;;;;5044090;28;20251;-75
2023/01/12 02:41:08;;;;;;;8.30;3.40;;;5.20;96.00;;;;;;5041257;28;20188;-74
2023/01/12 02:43:38;;;;;;;8.10;4.20;;;5.30;96.00;;;;;;5045887;28;20250;-75
2023/01/12 02:46:14;;;;;;;6.57;3.93;;;5.30;96.00;;;;;;5046624;28;20235;-74
2023/01/12 02:48:51;;;;;;;8.40;4.23;;;5.30;96.00;;;;;;5048231;28;22481;-74
2023/01/12 02:51:25;;;;;;;10.00;3.67;;;5.30;96.00;;;;;;5040051;28;20225;-75
2023/01/12 02:54:00;;;;;;;7.73;3.70;;;5.30;96.00;;;;;;5042652;28;20650;-77
2023/01/12 02:56:32;;;;;;;5.53;3.47;;;5.30;95.90;;;;;;5048041;28;20257;-76
2023/01/12 02:59:04;;;;;;;7.10;3.73;;;5.20;96.00;;;;;;5046569;28;20665;-77
2023/01/12 03:01:34;;;;;;;7.20;3.47;;;5.20;96.00;;;;;;5049082;28;20632;-76
2023/01/12 03:04:06;;;;;;;8.20;3.20;;;5.20;96.00;;;;;;5043941;28;20210;-76
2023/01/12 03:06:45;;;;;;;9.00;3.70;;;5.20;96.00;;;;;;5039206;28;20204;-76
2023/01/12 03:09:16;;;;;;;7.50;4.07;;;5.20;96.10;;;;;;5045360;28;20248;-76
2023/01/12 03:11:49;;;;;;;7.87;3.30;;;5.10;96.20;;;;;;5046461;28;20218;-76
2023/01/12 03:14:18;;;;;;;9.00;3.97;;;5.20;96.20;;;;;;5049630;28;20240;-76
2023/01/12 03:16:46;;;;;;;7.67;3.70;;;5.20;96.20;;;;;;5054118;28;20226;-76
2023/01/12 03:19:21;;;;;;;8.23;3.53;;;5.30;96.30;;;;;;5049925;28;20198;-76
2023/01/12 03:21:53;;;;;;;8.97;3.90;;;5.30;96.30;;;;;;5048634;28;20201;-77
2023/01/12 03:24:26;;;;;;;7.07;3.87;;;5.30;96.20;;;;;;5047032;28;20263;-76
2023/01/12 03:27:00;;;;;;;9.13;3.53;;;5.40;96.30;;;;;;5052178;28;20241;-77
2023/01/12 03:29:32;;;;;;;7.57;3.87;;;5.30;96.40;;;;;;5051974;28;20193;-76
2023/01/12 03:32:01;;;;;;;8.63;3.80;;;5.30;96.20;;;;;;5053631;28;20249;-77
2023/01/12 03:34:32;;;;;;;8.93;4.60;;;5.40;96.20;;;;;;5050108;28;20256;-76
2023/01/12 03:37:07;;;;;;;7.43;3.90;;;5.50;96.30;;;;;;5050807;28;20193;-77
2023/01/12 03:39:43;;;;;;;9.27;3.73;;;5.50;96.10;;;;;;5055165;28;20279;-77
2023/01/12 03:42:15;;;;;;;6.73;3.70;;;5.50;96.10;;;;;;5046825;28;20191;-77
2023/01/12 03:44:55;;;;;;;5.73;3.17;;;5.50;96.10;;;;;;5045655;28;20665;-76
2023/01/12 03:47:28;;;;;;;7.27;3.70;;;5.60;96.10;;;;;;5053002;28;20225;-77
2023/01/12 03:50:03;;;;;;;6.80;3.23;;;5.60;96.00;;;;;;5049542;28;20193;-76
2023/01/12 03:52:34;;;;;;;9.03;3.87;;;5.60;95.90;;;;;;5049598;28;20192;-76
2023/01/12 03:55:05;;;;;;;6.87;4.30;;;5.60;95.90;;;;;;5050563;28;20199;-76
2023/01/12 03:57:34;;;;;;;7.23;3.60;;;5.70;95.90;;;;;;5051281;28;20210;-76
2023/01/12 04:00:06;;;;;;;8.17;3.90;;;5.70;95.80;;;;;;5053151;28;20250;-77
2023/01/12 04:02:35;;;;;;;9.23;3.43;;;5.70;95.80;;;;;;5050946;28;20587;-76
2023/01/12 04:05:07;;;;;;;8.93;3.80;;;5.80;95.80;;;;;;5047080;28;20199;-74
2023/01/12 04:07:35;;;;;;;6.97;3.97;;;5.80;96.10;;;;;;5036454;28;20636;-76
2023/01/12 04:10:03;;;;;;;8.00;3.70;;;5.80;95.50;;;;;;5052100;28;20251;-76
2023/01/12 04:12:31;;;;;;;9.87;4.00;;;5.80;95.50;;;;;;5047648;28;20260;-77
2023/01/12 04:14:59;;;;;;;5.60;3.37;;;5.80;95.50;;;;;;5048681;28;20227;-76
2023/01/12 04:17:28;;;;;;;5.97;3.90;;;5.80;95.50;;;;;;5049751;28;20612;-76
2023/01/12 04:19:56;;;;;;;6.83;3.60;;;5.90;95.50;;;;;;5050521;28;20211;-74
2023/01/12 04:22:43;;;;;;;7.07;3.60;;;5.80;95.30;;;;;;5049186;28;20202;-75
2023/01/12 04:25:12;;;;;;;8.20;3.93;;;5.90;95.40;;;;;;5047347;28;20193;-75
2023/01/12 04:27:47;;;;;;;6.60;3.60;;;5.80;95.30;;;;;;5050133;28;20756;-75
2023/01/12 04:30:17;;;;;;;6.50;3.67;;;5.90;95.40;;;;;;5052108;28;20195;-75
2023/01/12 04:32:45;;;;;;;7.57;4.07;;;5.80;95.10;;;;;;5053658;28;20652;-74
2023/01/12 04:35:15;;;;;;;7.70;4.00;;;5.80;95.10;;;;;;5045911;28;20247;-75
2023/01/12 04:37:45;;;;;;;10.05;5.07;;;5.80;95.10;;;;;;5044382;28;20430;-74
2023/01/12 04:40:15;;;;;;;9.07;4.20;;;5.80;95.50;;;;;;5047278;28;20244;-75
2023/01/12 04:43:00;;;;;;;9.63;4.67;;;5.80;95.40;;;;;;5038167;28;20207;-75
2023/01/12 04:45:30;;;;;;;11.00;4.53;;;5.80;95.30;;;;;;5053076;28;20198;-75
2023/01/12 04:48:02;;;;;;;10.37;4.87;;;5.80;95.30;;;;;;5050749;28;20201;-75
2023/01/12 04:50:30;;;;;;;10.17;4.73;;;5.80;95.30;;;;;;5047984;28;20597;-74
2023/01/12 04:53:01;;;;;;;5.40;3.47;;;5.90;95.40;;;;;;5052367;28;20621;-75
2023/01/12 04:55:30;;;;;;;9.23;4.50;;;5.90;95.40;;;;;;5048820;28;20187;-76
2023/01/12 04:57:58;;;;;;;10.03;4.40;;;5.90;95.40;;;;;;5044793;28;20228;-75
2023/01/12 05:00:27;;;;;;;7.57;4.27;;;5.90;95.40;;;;;;5050832;28;20650;-75
2023/01/12 05:02:58;;;;;;;9.57;4.13;;;6.00;95.30;;;;;;5049639;28;20201;-76
2023/01/12 05:05:26;;;;;;;7.37;3.90;;;6.00;95.20;;;;;;5042177;28;20194;-75
2023/01/12 05:10:42;;;;;;;8.33;3.97;;;6.00;95.20;;;;;;5047787;28;20202;-74
2023/01/12 05:13:10;;;;;;;8.77;3.67;;;6.00;95.10;;;;;;5044309;28;20615;-75
2023/01/12 05:15:38;;;;;;;6.57;3.70;;;6.10;95.20;;;;;;5048050;28;20208;-74
2023/01/12 05:18:06;;;;;;;8.07;4.33;;;6.10;95.20;;;;;;5051991;28;20198;-74
2023/01/12 05:20:35;;;;;;;8.23;3.77;;;6.10;95.10;;;;;;5051238;28;20204;-74
2023/01/12 05:23:03;;;;;;;8.57;4.70;;;6.10;95.10;;;;;;5047635;28;20201;-74
2023/01/12 05:25:31;;;;;;;7.97;4.10;;;6.10;95.10;;;;;;5051004;28;20217;-75
2023/01/12 05:28:01;;;;;;;9.97;4.40;;;6.20;95.10;;;;;;5048129;28;20217;-76
2023/01/12 05:30:30;;;;;;;7.20;3.97;;;6.20;95.00;;;;;;5051243;28;20263;-76
2023/01/12 05:32:59;;;;;;;8.17;4.33;;;6.20;95.40;;;;;;5051960;28;20198;-76
2023/01/12 05:35:27;;;;;;;8.30;4.70;;;6.20;95.10;;;;;;5045916;28;20197;-74
2023/01/12 05:37:56;;;;;;;8.70;4.40;;;6.20;95.00;;;;;;5048152;28;20222;-77
2023/01/12 05:40:25;;;;;;;10.43;5.13;;;6.30;95.10;;;;;;5048324;28;20570;-77
2023/01/12 05:45:40;;;;;;;10.47;4.43;;;6.30;95.10;;;;;;5042901;28;20284;-76
2023/01/12 05:48:08;;;;;;;10.83;5.00;;;6.30;95.00;;;;;;5052020;28;20749;-76
2023/01/12 05:50:36;;;;;;;9.97;4.23;;;6.40;95.00;;;;;;5050280;28;20191;-75
2023/01/12 05:53:05;;;;;;;9.50;3.90;;;6.40;94.90;;;;;;5046975;28;20302;-75
2023/01/12 05:55:33;;;;;;;7.73;4.10;;;6.40;94.90;;;;;;5041660;28;20720;-75
2023/01/12 05:58:01;;;;;;;7.10;3.87;;;6.40;94.90;;;;;;5046619;28;20675;-75
2023/01/12 06:00:29;;;;;;;10.10;4.17;;;6.40;94.90;;;;;;5048359;28;20615;-77
2023/01/12 06:02:59;;;;;;;9.10;4.20;;;6.40;94.80;;;;;;5045971;28;20600;-76
2023/01/12 06:05:27;;;;;;;7.13;4.23;;;6.40;94.70;;;;;;5043781;28;20205;-75
2023/01/12 06:07:56;;;;;;;9.07;4.23;;;6.40;94.70;;;;;;5043701;28;20272;-75
2023/01/12 06:10:24;;;;;;;7.83;4.00;;;6.40;94.70;;;;;;5048502;28;20194;-76
2023/01/12 06:15:38;;;;;;;6.70;4.07;;;6.40;94.70;;;;;;5051780;28;20611;-75
2023/01/12 06:18:07;;;;;;;8.20;4.70;;;6.50;94.80;;;;;;5042893;28;20193;-75
2023/01/12 06:20:36;;;;;;;8.83;4.47;;;6.50;94.80;;;;;;5048299;28;20256;-75
2023/01/12 06:23:05;;;;;;;8.77;4.63;;;6.50;94.80;;;;;;5050877;28;20727;-75
2023/01/12 06:25:33;;;;;;;9.80;4.40;;;6.50;94.60;;;;;;5043618;28;20259;-75
2023/01/12 06:28:01;;;;;;;8.47;4.30;;;6.60;94.60;;;;;;5042059;28;20744;-75
2023/01/12 06:30:30;;;;;;;9.33;4.57;;;6.60;94.50;;;;;;5044668;28;20202;-75
2023/01/12 06:33:01;;;;;;;9.87;5.13;;;6.60;94.60;;;;;;5047272;28;20245;-74
2023/01/12 06:35:31;;;;;;;8.60;4.83;;;6.60;94.60;;;;;;5050192;28;20251;-75
2023/01/12 06:38:00;;;;;;;10.60;5.07;;;6.60;94.60;;;;;;5038305;28;20198;-74
2023/01/12 06:40:28;;;;;;;10.53;5.50;;;6.60;94.60;;;;;;5048315;28;20359;-74
2023/01/12 06:42:56;;;;;;;10.27;5.97;;;6.60;94.60;;;;;;5050081;28;20209;-74
2023/01/12 06:45:24;;;;;;;11.77;5.43;;;6.70;94.60;;;;;;5045981;28;20202;-73
2023/01/12 06:47:54;;;;;;;7.30;4.27;;;6.60;94.50;;;;;;5051283;28;20275;-75
2023/01/12 06:50:23;;;;;;;9.90;5.00;;;6.70;94.50;;;;;;5051451;28;20712;-75
2023/01/12 06:52:54;;;;;;;9.20;5.20;;;6.70;94.50;;;;;;5050351;28;20206;-77
2023/01/12 06:55:22;;;;;;;8.97;4.90;;;6.70;94.50;;;;;;5048638;28;20193;-76
2023/01/12 06:57:51;;;;;;;10.50;5.23;;;6.70;94.40;;;;;;5052094;28;20202;-76
2023/01/12 07:00:20;;;;;;;11.97;4.77;;;6.80;94.40;;;;;;5051119;28;20267;-76
2023/01/12 07:02:50;;;;;;;9.43;5.37;;;6.80;94.30;;;;;;5044024;28;20202;-76
2023/01/12 07:05:19;;;;;;;9.33;5.43;;;6.90;94.70;;;;;;5050699;28;20199;-76
2023/01/12 07:07:47;;;;;;;10.07;5.67;;;6.90;94.30;;;;;;5049823;28;20218;-76
2023/01/12 07:10:17;;;;;;;10.73;5.57;;;7.00;94.30;;;;;;5047422;28;20205;-76
2023/01/12 07:12:46;;;;;;;12.10;5.87;;;7.00;94.30;;;;;;5043550;28;20277;-75
2023/01/12 07:15:15;;;;;;;10.37;5.80;;;7.00;94.30;;;;;;5049186;28;20199;-76
2023/01/12 07:17:43;;;;;;;9.30;5.20;;;7.00;94.20;;;;;;5052806;28;20268;-76
2023/01/12 07:20:12;;;;;;;10.90;5.30;;;7.10;94.20;;;;;;5045179;28;20202;-75
2023/01/12 07:22:40;;;;;;;10.67;5.17;;;7.10;94.00;;;;;;5045373;28;20203;-77
2023/01/12 07:25:09;;;;;;;13.93;5.50;;;7.20;94.00;;;;;;5050289;28;20289;-76
2023/01/12 07:27:39;;;;;;;10.03;5.50;;;7.30;94.00;;;;;;5051310;28;20203;-76
2023/01/12 07:30:09;;;;;;;11.43;5.67;;;7.30;93.90;;;;;;5052040;28;20195;-76
2023/01/12 07:32:37;;;;;;;12.27;5.63;;;7.30;93.80;;;;;;5049535;28;20228;-74
2023/01/12 07:35:06;;;;;;;10.57;5.47;;;7.30;93.70;;;;;;5050409;28;20655;-74
2023/01/12 07:37:34;;;;;;;12.13;6.47;;;7.30;93.70;;;;;;5044337;28;20198;-74
2023/01/12 07:40:03;;;;;;;13.43;6.90;;;7.30;93.70;;;;;;5050939;28;20202;-75
2023/01/12 07:42:32;;;;;;;14.57;7.47;;;7.30;93.60;;;;;;5040296;28;20844;-75
2023/01/12 07:45:02;;;;;;;15.70;5.83;;;7.40;93.70;;;;;;5049614;28;20206;-75
2023/01/12 07:47:30;;;;;;;10.37;5.33;;;7.40;93.70;;;;;;5045361;28;20288;-75
2023/01/12 07:49:58;;;;;;;18.80;5.80;;;7.50;93.70;;;;;;5042450;28;20684;-75
2023/01/12 07:52:27;;;;;;;12.17;5.60;;;7.50;93.60;;;;;;5045230;28;20202;-75
2023/01/12 07:54:55;;;;;;;9.48;5.60;;;7.60;93.60;;;;;;5044187;28;20447;-76
2023/01/12 07:57:23;;;;;;;11.83;5.83;;;7.60;93.50;;;;;;5048857;28;20198;-75
2023/01/12 07:59:52;;;;;;;9.00;5.70;;;7.70;93.50;;;;;;5052312;28;20597;-76
2023/01/12 08:02:21;;;;;;;10.57;5.37;;;7.70;93.40;;;;;;5041875;28;20195;-76
2023/01/12 08:04:50;;;;;;;11.57;6.00;;;7.80;93.40;;;;;;5052581;28;20218;-76
2023/01/12 08:07:18;;;;;;;10.53;5.67;;;7.80;93.20;;;;;;5039128;28;20225;-75
2023/01/12 08:09:46;;;;;;;10.03;5.07;;;7.80;93.10;;;;;;5044922;28;20301;-74
2023/01/12 08:12:15;;;;;;;10.17;5.37;;;7.80;93.50;;;;;;5044755;28;20203;-75
2023/01/12 08:14:43;;;;;;;10.80;5.73;;;7.90;93.10;;;;;;5051327;28;20202;-75
2023/01/12 08:17:15;;;;;;;10.43;5.67;;;7.90;92.90;;;;;;5050035;28;20206;-76
2023/01/12 08:19:50;;;;;;;13.77;5.10;;;7.90;92.80;;;;;;5049008;28;20202;-75
2023/01/12 08:22:23;;;;;;;13.93;6.63;;;7.90;92.90;;;;;;5049868;28;20191;-75
2023/01/12 08:24:55;;;;;;;16.23;6.20;;;7.90;93.20;;;;;;5049121;28;20929;-75
2023/01/12 08:27:27;;;;;;;11.37;6.07;;;8.00;92.90;;;;;;5049559;28;20946;-76
2023/01/12 08:29:57;;;;;;;11.73;6.60;;;8.00;92.80;;;;;;5048123;28;20249;-77
2023/01/12 08:32:28;;;;;;;15.10;6.33;;;8.00;92.80;;;;;;5049724;28;20206;-76
2023/01/12 08:35:00;;;;;;;12.60;6.10;;;8.00;92.80;;;;;;5048973;28;20697;-77
2023/01/12 08:37:33;;;;;;;15.20;7.00;;;8.00;92.70;;;;;;5049451;28;20198;-77
2023/01/12 08:40:04;;;;;;;14.87;6.73;;;8.00;92.70;;;;;;5041528;28;20210;-76
2023/01/12 08:42:34;;;;;;;12.93;6.60;;;8.10;92.70;;;;;;5037210;28;20290;-76
2023/01/12 08:45:03;;;;;;;11.80;5.53;;;8.10;92.80;;;;;;5045624;28;20203;-76
2023/01/12 08:47:31;;;;;;;11.97;6.17;;;8.10;92.70;;;;;;5049871;28;20226;-76
2023/01/12 08:50:01;;;;;;;10.33;6.43;;;8.10;92.60;;;;;;5048240;28;20619;-76
2023/01/12 08:52:31;;;;;;;14.10;6.70;;;8.10;92.60;;;;;;5050610;28;20685;-76
2023/01/12 08:54:59;;;;;;;11.87;6.07;;;8.10;92.60;;;;;;5045412;28;20223;-76
2023/01/12 08:57:28;;;;;;;15.40;7.73;;;8.10;92.60;;;;;;5045302;28;20258;-76
2023/01/12 08:59:56;;;;;;;13.93;8.20;;;8.10;92.50;;;;;;5049485;28;20196;-76
2023/01/12 09:02:25;;;;;;;17.23;7.63;;;8.00;92.30;;;;;;5050377;28;20194;-76
2023/01/12 09:04:54;;;;;;;15.00;7.93;;;8.10;92.50;;;;;;5047913;28;20203;-76
2023/01/12 09:07:24;;;;;;;12.50;7.10;;;8.10;92.50;;;;;;5049551;28;20286;-76
2023/01/12 09:09:52;;;;;;;11.80;6.53;;;8.10;92.50;;;;;;5051056;28;20219;-76
2023/01/12 09:12:20;;;;;;;14.83;6.40;;;8.10;92.50;;;;;;5046202;28;20608;-76
2023/01/12 09:14:52;;;;;;;13.30;6.30;;;8.10;92.40;;;;;;5047775;28;20652;-77
2023/01/12 09:17:22;;;;;;;14.13;7.10;;;8.20;92.40;;;;;;5044399;28;20226;-76
2023/01/12 09:19:51;;;;;;;11.63;6.30;;;8.10;91.90;;;;;;5043698;28;20710;-76
2023/01/12 09:22:19;;;;;;;14.77;6.47;;;8.10;91.90;;;;;;5049264;28;20202;-76
2023/01/12 09:24:49;;;;;;;13.97;7.53;;;8.10;92.00;;;;;;5047431;28;20204;-76
2023/01/12 09:27:19;;;;;;;12.33;5.87;;;8.10;92.10;;;;;;5044227;28;20195;-76
2023/01/12 09:29:47;;;;;;;10.30;6.00;;;8.10;92.00;;;;;;5046690;28;20272;-77
2023/01/12 09:32:15;;;;;;;12.63;5.73;;;8.10;92.20;;;;;;5048768;28;20210;-76
2023/01/12 09:34:50;;;;;;;14.47;7.20;;;8.20;92.20;;;;;;5045813;28;20253;-78
2023/01/12 09:37:18;;;;;;;15.97;6.77;;;8.20;92.20;;;;;;5047539;28;20575;-76
2023/01/12 09:39:48;;;;;;;12.23;5.70;;;8.20;92.20;;;;;;5050501;28;20191;-77
2023/01/12 09:48:05;;;;;;;10.70;5.30;;;8.20;92.00;;;;;;5045487;28;20281;-75
2023/01/12 09:50:37;;;;;;;11.07;5.30;;;8.20;92.00;;;;;;5050469;28;20226;-76
2023/01/12 09:53:12;;;;;;;14.07;6.83;;;8.20;92.00;;;;;;5046909;28;20263;-75
2023/01/12 09:55:51;;;;;;;11.47;6.30;;;8.10;91.90;;;;;;5045249;28;20195;-76
2023/01/12 09:58:36;;;;;;;16.00;6.53;;;8.10;91.90;;;;;;5049927;28;20339;-75
2023/01/12 10:01:11;;;;;;;19.80;6.37;;;8.00;92.20;;;;;;5046905;28;20198;-76
2023/01/12 10:03:51;;;;;;;15.13;7.00;;;8.00;91.90;;;;;;5049417;28;20191;-75
2023/01/12 10:06:20;;;;;;;13.80;7.10;;;8.00;92.50;;;;;;5050120;28;20203;-75
2023/01/12 10:08:51;;;;;;;13.63;6.90;;;8.10;92.00;;;;;;5050163;28;20248;-75
2023/01/12 10:11:27;;;;;;;15.00;6.83;;;8.10;92.00;;;;;;5042047;28;20238;-76
2023/01/12 10:14:24;;;;;;;13.23;6.50;;;8.10;91.90;;;;;;5049142;28;20206;-73
2023/01/12 10:17:15;;;;;;;13.57;6.57;;;8.10;91.90;;;;;;5044864;28;20198;-74
2023/01/12 10:19:48;;;;;;;14.80;8.05;;;8.10;91.90;;;;;;5047079;28;20437;-74
2023/01/12 10:22:35;;;;;;;15.37;7.37;;;8.10;91.90;;;;;;5039600;28;20191;-74
2023/01/12 10:25:21;;;;;;;15.33;6.93;;;8.10;91.90;;;;;;5049054;28;20289;-73
2023/01/12 10:27:53;;;;;;;11.30;5.70;;;8.00;91.80;;;;;;5042536;28;20249;-73
2023/01/12 10:30:27;;;;;;;12.60;6.33;;;8.10;91.80;;;;;;5040054;28;20708;-73
2023/01/12 10:32:56;;;;;;;18.47;6.70;;;7.90;91.60;;;;;;5045614;28;20724;-73
2023/01/12 10:35:25;;;;;;;13.80;6.20;;;7.90;91.70;;;;;;5050110;28;20287;-74
2023/01/12 10:37:56;;;;;;;14.40;7.03;;;7.80;91.70;;;;;;5042103;28;20252;-74
2023/01/12 10:40:28;;;;;;;12.33;6.53;;;7.80;91.90;;;;;;5045347;28;20222;-74
2023/01/12 10:43:22;;;;;;;13.33;6.60;;;7.70;92.00;;;;;;5048694;28;20652;-74
2023/01/12 10:46:05;;;;;;;17.13;6.70;;;7.70;92.20;;;;;;5049792;28;20285;-74
2023/01/12 10:48:33;;;;;;;10.43;5.60;;;7.70;92.30;;;;;;5044804;28;20194;-74
2023/01/12 10:51:04;;;;;;;10.60;5.37;;;7.60;92.30;;;;;;5047154;28;20276;-75
2023/01/12 10:53:38;;;;;;;12.07;5.87;;;7.60;92.50;;;;;;5045033;28;20226;-74
2023/01/12 10:56:20;;;;;;;8.80;4.93;;;7.60;92.80;;;;;;5046875;28;20239;-75
2023/01/12 10:58:56;;;;;;;11.95;6.60;;;7.50;92.80;;;;;;5044332;28;20470;-74
2023/01/12 11:01:24;;;;;;;13.00;6.63;;;7.50;93.10;;;;;;5036545;28;20199;-74
2023/01/12 11:04:04;;;;;;;13.20;6.57;;;7.50;93.10;;;;;;5044441;28;20200;-75
2023/01/12 11:06:32;;;;;;;12.37;6.00;;;7.50;93.20;;;;;;5040574;28;20186;-74
2023/01/12 11:09:17;;;;;;;13.93;6.03;;;7.50;93.30;;;;;;5048478;28;20226;-75
2023/01/12 11:11:53;;;;;;;10.00;5.47;;;7.40;93.10;;;;;;5048576;28;20730;-76
2023/01/12 11:14:31;;;;;;;9.67;5.57;;;7.50;93.20;;;;;;5044401;28;20191;-75
2023/01/12 11:17:24;;;;;;;12.10;6.00;;;7.50;93.20;;;;;;5048679;28;20195;-76
2023/01/12 11:19:55;;;;;;;10.33;5.37;;;7.50;93.30;;;;;;5044210;28;20612;-75
2023/01/12 11:22:26;;;;;;;14.13;5.83;;;7.50;93.30;;;;;;5048777;28;20223;-75
2023/01/12 11:25:00;;;;;;;10.30;5.67;;;7.50;93.50;;;;;;5045359;28;20203;-75
2023/01/12 11:27:34;;;;;;;12.57;6.47;;;7.60;93.50;;;;;;5041337;28;20260;-75
2023/01/12 11:30:11;;;;;;;9.23;5.43;;;7.60;93.50;;;;;;5040089;28;20321;-75
2023/01/12 12:07:06;;;;;;;13.33;6.50;;;6.90;94.00;;;;;;5092584;27;1396181;-75
2023/01/12 12:09:53;;;;;;;10.70;5.80;;;7.30;95.10;;;;;;5106251;28;20253;-76
2023/01/12 12:12:30;;;;;;;11.00;5.47;;;7.40;94.90;;;;;;5112790;28;20188;-75
2023/01/12 12:15:07;;;;;;;12.40;5.30;;;7.50;94.70;;;;;;5115575;28;20196;-75
2023/01/12 12:17:45;;;;;;;8.50;4.87;;;7.60;94.50;;;;;;5115941;28;20266;-75
2023/01/12 12:20:21;;;;;;;11.40;5.23;;;7.60;94.20;;;;;;5112001;27;20312;-76
2023/01/12 12:23:02;;;;;;;8.53;4.80;;;7.70;94.00;;;;;;5114796;28;20196;-76
2023/01/12 12:25:43;;;;;;;9.47;4.90;;;7.80;93.80;;;;;;5120243;28;20680;-75
2023/01/12 12:28:33;;;;;;;8.70;4.73;;;7.70;93.50;;;;;;5117483;28;20191;-75
2023/01/12 12:31:12;;;;;;;7.03;4.27;;;7.80;93.30;;;;;;5121640;28;20706;-75
2023/01/12 12:34:03;;;;;;;9.37;4.80;;;7.80;93.20;;;;;;5122955;27;20211;-75
2023/01/12 12:36:39;;;;;;;9.70;5.70;;;7.80;93.30;;;;;;5116677;28;20246;-75
2023/01/12 12:39:32;;;;;;;9.30;4.83;;;7.80;93.50;;;;;;5122944;28;20188;-75
2023/01/12 12:45:19;;;;;;;9.70;4.57;;;7.90;93.00;;;;;;5112638;28;20200;-75
2023/01/12 12:48:01;;;;;;;8.47;4.73;;;7.80;92.90;;;;;;5118325;28;20546;-75
2023/01/12 12:50:34;;;;;;;9.70;4.87;;;7.80;92.90;;;;;;5112524;28;20713;-74
2023/01/12 12:53:17;;;;;;;11.43;4.73;;;7.80;92.90;;;;;;5124758;28;20584;-75
2023/01/12 12:55:46;;;;;;;13.37;5.50;;;7.80;92.90;;;;;;5119978;28;20568;-75
2023/01/12 12:58:51;;;;;;;10.33;5.57;;;7.80;92.90;;;;;;5115433;28;20246;-76
2023/01/12 13:01:58;;;;;;;11.27;6.23;;;7.80;92.90;;;;;;5115908;28;20266;-75
2023/01/12 13:04:59;;;;;;;9.00;5.53;;;7.80;92.90;;;;;;5117427;28;20295;-76
2023/01/12 13:07:28;;;;;;;9.67;5.60;;;7.80;92.90;;;;;;5103099;28;20186;-75
2023/01/12 13:10:26;;;;;;;17.33;6.83;;;7.90;92.90;;;;;;5105900;28;20738;-75
2023/01/12 13:13:02;;;;;;;10.63;5.90;;;7.90;92.90;;;;;;5106062;28;20249;-75
2023/01/12 13:15:35;;;;;;;11.00;5.20;;;7.80;92.60;;;;;;5103510;28;20193;-76
2023/01/12 13:18:26;;;;;;;9.90;5.47;;;7.80;92.60;;;;;;5101760;28;20193;-75
2023/01/12 13:20:58;;;;;;;11.60;6.28;;;7.70;92.60;;;;;;5109377;28;20441;-75
2023/01/12 13:23:50;;;;;;;13.93;7.03;;;7.70;92.80;;;;;;5102627;28;20615;-77
2023/01/12 13:26:51;;;;;;;11.43;6.37;;;7.80;92.90;;;;;;5099537;28;20258;-75
2023/01/12 13:29:49;;;;;;;11.00;5.73;;;7.70;92.90;;;;;;5095532;28;20189;-75
2023/01/12 13:32:43;;;;;;;13.45;6.20;;;7.80;93.00;;;;;;5095381;27;20522;-74
2023/01/12 13:35:51;;;;;;;12.67;5.90;;;7.80;92.90;;;;;;5098026;28;20189;-75
2023/01/12 13:38:30;;;;;;;13.20;6.00;;;7.80;92.90;;;;;;5103939;28;20193;-76
2023/01/12 13:41:10;;;;;;;13.13;6.83;;;7.70;92.80;;;;;;5104715;28;20191;-76
2023/01/12 13:43:41;;;;;;;10.73;6.43;;;7.70;92.90;;;;;;5100304;28;20216;-76
2023/01/12 13:46:14;;;;;;;13.00;6.07;;;7.70;92.90;;;;;;5098093;28;20209;-76
2023/01/12 13:48:46;;;;;;;12.43;6.10;;;7.70;93.10;;;;;;5102135;28;20220;-76
2023/01/12 13:51:20;;;;;;;11.53;6.70;;;7.70;93.10;;;;;;5098225;28;20190;-74
2023/01/12 13:54:00;;;;;;;12.50;6.37;;;7.80;93.10;;;;;;5103696;28;20194;-75
2023/01/12 13:56:28;;;;;;;13.30;6.73;;;7.70;93.10;;;;;;5103331;28;20197;-75
2023/01/12 13:58:59;;;;;;;12.77;6.87;;;7.80;93.10;;;;;;5102961;28;20193;-76
2023/01/12 14:01:32;;;;;;;11.07;6.77;;;7.80;93.00;;;;;;5106831;28;20185;-77
2023/01/12 14:04:27;;;;;;;12.60;5.97;;;7.80;93.00;;;;;;5099306;28;20649;-76
2023/01/12 14:07:05;;;;;;;9.27;5.53;;;7.80;93.00;;;;;;5060822;28;20249;-77
2023/01/12 14:09:51;;;;;;;12.77;6.40;;;7.80;92.90;;;;;;5062918;28;21017;-76
2023/01/12 14:12:37;;;;;;;11.40;5.47;;;7.80;93.20;;;;;;5060022;28;20251;-76
2023/01/12 14:18:06;;;;;;;14.95;7.50;;;7.80;93.10;;;;;;5062646;28;20365;-76
2023/01/12 14:20:43;;;;;;;15.07;7.90;;;7.80;93.00;;;;;;5073441;28;20205;-76
2023/01/12 14:23:21;;;;;;;15.30;6.67;;;7.80;93.00;;;;;;5065807;28;20197;-76
2023/01/12 14:26:07;;;;;;;9.63;6.07;;;7.90;93.10;;;;;;5062350;28;21070;-76
2023/01/12 14:28:36;;;;;;;13.80;7.10;;;7.90;93.50;;;;;;5058025;28;20187;-75